Terminal Aerodrome Forecast
Issued by NWS

Home | Current Version | Previous Version | Graphics & Text | Print | Product List | Glossary On
Versions: 1 2 3 4 5 6 7 8 9 10 11 12 13 14 15 16 17 18 19 20 21 22 23 24
000
FTUS43 KTOP 181700
TAFFOE
TAF
KFOE 181730Z 1818/1918 10007KT 6SM BR BKN006
     FM182000 10008KT P6SM BKN010
      TEMPO 1822/1902 SCT012
     FM190800 12004KT 4SM BR BKN005
     FM191600 16007KT P6SM BKN012=

USA.gov is the U.S. government's official web portal to all federal, state and local government web resources and services.